createdAt,value
2019-01-10T00:04:21.980Z,8.00
2019-01-10T00:09:41.360Z,5.50
2019-01-10T00:15:00.893Z,4.97
2019-01-10T00:20:20.536Z,5.00
2019-01-10T00:25:40.176Z,6.03
2019-01-10T00:31:00.745Z,6.60
2019-01-10T00:36:20.579Z,6.20
2019-01-10T00:41:41.127Z,5.73
2019-01-10T00:47:00.144Z,6.73
2019-01-10T00:52:19.808Z,6.23
2019-01-10T00:57:39.504Z,6.20
2019-01-10T01:02:59.191Z,6.83
2019-01-10T01:08:20.209Z,6.00
2019-01-10T01:13:39.840Z,7.03
2019-01-10T01:18:59.367Z,6.87
2019-01-10T01:24:19.425Z,7.30
2019-01-10T01:29:39.228Z,6.60
2019-01-10T01:34:58.984Z,7.33
2019-01-10T01:40:19.119Z,8.27
2019-01-10T01:45:38.692Z,7.57
2019-01-10T01:50:58.625Z,7.47
2019-01-10T01:56:17.663Z,7.43
2019-01-10T02:01:36.988Z,6.73
2019-01-10T02:06:56.241Z,7.17
2019-01-10T02:12:15.976Z,7.40
2019-01-10T02:17:36.433Z,6.30
2019-01-10T02:22:56.159Z,5.37
2019-01-10T02:28:15.288Z,6.13
2019-01-10T02:33:35.923Z,5.80
2019-01-10T02:38:55.796Z,6.40
2019-01-10T02:44:15.209Z,5.33
2019-01-10T02:49:34.868Z,6.40
2019-01-10T02:54:54.928Z,5.03
2019-01-10T03:00:21.058Z,6.50
2019-01-10T03:05:41.008Z,6.40
2019-01-10T03:11:01.243Z,6.40
2019-01-10T03:16:20.293Z,6.50
2019-01-10T03:21:39.396Z,6.17
2019-01-10T03:26:59.053Z,7.70
2019-01-10T03:32:18.846Z,7.00
2019-01-10T03:37:39.076Z,6.80
2019-01-10T03:42:58.621Z,6.13
2019-01-10T03:48:18.217Z,6.63
2019-01-10T03:53:37.637Z,6.13
2019-01-10T03:58:56.636Z,6.43
2019-01-10T04:04:16.158Z,5.80
2019-01-10T04:09:35.541Z,6.10
2019-01-10T04:14:54.999Z,6.87
2019-01-10T04:20:16.556Z,6.00
2019-01-10T04:25:35.658Z,5.20
2019-01-10T04:30:55.610Z,5.40
2019-01-10T04:36:15.482Z,5.87
2019-01-10T04:41:34.948Z,6.03
2019-01-10T04:46:54.941Z,7.73
2019-01-10T04:52:15.215Z,7.43
2019-01-10T04:57:34.340Z,8.00
2019-01-10T05:02:53.851Z,9.43
2019-01-10T05:08:13.721Z,13.10
2019-01-10T05:13:32.980Z,19.53
2019-01-10T05:18:53.211Z,10.57
2019-01-10T05:24:12.920Z,16.50
2019-01-10T05:29:32.342Z,27.20
2019-01-10T05:34:52.219Z,14.27
2019-01-10T05:40:11.694Z,9.77
2019-01-10T05:45:31.760Z,10.03
2019-01-10T05:50:53.181Z,7.80
2019-01-10T05:56:15.593Z,8.50
2019-01-10T06:01:34.880Z,7.57
2019-01-10T06:06:53.597Z,7.83
2019-01-10T06:12:13.425Z,9.67
2019-01-10T06:17:33.206Z,8.90
2019-01-10T06:22:52.598Z,47.67
2019-01-10T06:28:11.932Z,55.53
2019-01-10T06:33:32.023Z,19.20
2019-01-10T06:38:51.433Z,9.33
2019-01-10T06:44:10.992Z,7.90
2019-01-10T06:49:30.707Z,9.30
2019-01-10T06:54:56.575Z,7.80
2019-01-10T07:00:13.101Z,13.83
2019-01-10T07:05:33.173Z,27.87
2019-01-10T07:10:52.536Z,13.67
2019-01-10T07:16:11.673Z,31.37
2019-01-10T07:21:36.677Z,11.13
2019-01-10T07:26:59.805Z,7.80
2019-01-10T07:32:19.710Z,8.67
2019-01-10T07:37:40.587Z,10.20
2019-01-10T07:43:00.644Z,12.87
2019-01-10T07:48:20.301Z,22.73
2019-01-10T07:53:39.549Z,16.43
2019-01-10T07:58:59.279Z,9.83
2019-01-10T08:04:18.841Z,34.17
2019-01-10T08:09:38.939Z,29.50
2019-01-10T08:14:58.693Z,11.87
2019-01-10T08:20:18.328Z,19.60
2019-01-10T08:25:37.788Z,11.30
2019-01-10T08:30:57.557Z,11.07
2019-01-10T08:36:16.737Z,14.30
2019-01-10T08:41:36.529Z,8.73
2019-01-10T08:46:56.367Z,8.50
2019-01-10T08:52:15.640Z,8.90
2019-01-10T08:57:35.060Z,9.50
2019-01-10T09:02:55.287Z,11.03
2019-01-10T09:08:15.151Z,7.53
2019-01-10T09:13:34.349Z,9.60
2019-01-10T09:18:54.827Z,8.20
2019-01-10T09:24:14.708Z,9.00
2019-01-10T09:29:34.676Z,8.17
2019-01-10T09:34:55.417Z,8.87
2019-01-10T09:40:16.569Z,9.50
2019-01-10T09:45:43.047Z,10.37
2019-01-10T09:50:55.716Z,11.63
2019-01-10T09:56:15.681Z,12.80
2019-01-10T10:01:35.264Z,12.03
2019-01-10T10:06:54.960Z,13.43
2019-01-10T10:12:13.950Z,16.30
2019-01-10T10:17:33.532Z,16.70
2019-01-10T10:22:52.504Z,21.00
2019-01-10T10:28:12.137Z,23.03
2019-01-10T10:33:32.045Z,19.57
2019-01-10T10:38:52.105Z,21.57
2019-01-10T10:44:11.812Z,22.27
2019-01-10T10:49:33.289Z,23.63
2019-01-10T10:54:53.743Z,16.27
2019-01-10T11:00:21.895Z,21.83
2019-01-10T11:05:41.727Z,19.93
2019-01-10T11:11:01.308Z,19.90
2019-01-10T11:16:21.129Z,17.07
2019-01-10T11:21:40.364Z,20.87
2019-01-10T11:26:59.676Z,27.00
2019-01-10T11:32:19.163Z,24.60
2019-01-10T11:37:38.680Z,29.90
2019-01-10T11:42:58.626Z,27.93
2019-01-10T11:48:17.644Z,27.50
2019-01-10T11:53:38.435Z,29.70
2019-01-10T11:58:57.571Z,23.47
2019-01-10T12:04:17.004Z,26.73
2019-01-10T12:09:36.145Z,23.57
2019-01-10T12:14:55.564Z,30.03
2019-01-10T12:20:15.728Z,24.17
2019-01-10T12:25:35.662Z,28.83
2019-01-10T12:30:55.196Z,25.97
2019-01-10T12:36:14.753Z,28.93
2019-01-10T12:41:35.962Z,38.67
2019-01-10T12:46:56.796Z,22.43
2019-01-10T12:52:16.357Z,27.83
2019-01-10T12:57:35.776Z,26.20
2019-01-10T13:02:55.955Z,26.27
2019-01-10T13:08:15.411Z,16.87
2019-01-10T13:13:35.358Z,17.07
2019-01-10T13:18:54.655Z,22.83
2019-01-10T13:24:13.736Z,23.60
2019-01-10T13:29:34.501Z,19.40
2019-01-10T13:34:54.712Z,28.20
2019-01-10T13:40:15.795Z,18.30
2019-01-10T13:45:34.018Z,24.17
2019-01-10T13:50:53.950Z,21.57
2019-01-10T13:56:13.438Z,19.37
2019-01-10T14:01:33.745Z,13.90
2019-01-10T14:06:53.791Z,27.10
2019-01-10T14:12:13.136Z,27.73
2019-01-10T14:17:32.837Z,50.17
2019-01-10T14:22:52.779Z,21.87
2019-01-10T14:28:13.461Z,32.07
2019-01-10T14:33:32.334Z,12.70
2019-01-10T14:38:51.967Z,17.63
2019-01-10T14:44:12.376Z,15.83
2019-01-10T14:49:31.261Z,17.00
2019-01-10T14:54:50.431Z,21.17
2019-01-10T15:00:15.603Z,22.93
2019-01-10T15:05:35.542Z,23.83
2019-01-10T15:10:55.420Z,16.87
2019-01-10T15:16:14.788Z,22.03
2019-01-10T15:21:34.870Z,16.03
2019-01-10T15:26:53.892Z,15.67
2019-01-10T15:32:14.018Z,21.50
2019-01-10T15:37:33.536Z,22.43
2019-01-10T15:42:53.533Z,29.80
2019-01-10T15:48:13.170Z,20.97
2019-01-10T15:53:32.390Z,17.37
2019-01-10T15:58:51.764Z,21.87
2019-01-10T16:04:11.809Z,25.33
2019-01-10T16:09:31.201Z,24.97
2019-01-10T16:14:50.630Z,67.67
2019-01-10T16:20:09.821Z,32.23
2019-01-10T16:25:30.832Z,16.70
2019-01-10T16:30:50.503Z,25.77
2019-01-10T16:36:11.107Z,35.63
2019-01-10T16:41:32.035Z,44.73
2019-01-10T16:46:52.194Z,56.23
2019-01-10T16:52:11.681Z,55.60
2019-01-10T16:57:32.120Z,25.70
2019-01-10T17:02:53.091Z,32.47
2019-01-10T17:08:12.361Z,41.90
2019-01-10T17:13:32.392Z,24.97
2019-01-10T17:18:52.245Z,51.97
2019-01-10T17:24:13.504Z,27.33
2019-01-10T17:29:33.256Z,31.07
2019-01-10T17:34:52.932Z,27.57
2019-01-10T17:40:14.666Z,34.57
2019-01-10T17:45:35.741Z,29.67
2019-01-10T17:50:56.275Z,18.70
2019-01-10T17:56:16.269Z,22.33
2019-01-10T18:01:36.711Z,39.10
2019-01-10T18:06:56.961Z,25.93
2019-01-10T18:12:17.905Z,108.93
2019-01-10T18:17:38.679Z,64.73
2019-01-10T18:22:59.458Z,43.17
2019-01-10T18:28:19.208Z,32.20
2019-01-10T18:33:39.011Z,29.00
2019-01-10T18:38:59.131Z,28.77
2019-01-10T18:44:18.528Z,30.20
2019-01-10T18:49:38.463Z,41.73
2019-01-10T18:55:00.321Z,25.60
2019-01-10T19:00:24.560Z,37.67
2019-01-10T19:05:45.439Z,24.00
2019-01-10T19:11:05.736Z,13.27
2019-01-10T19:16:27.540Z,25.53
2019-01-10T19:21:48.024Z,21.20
2019-01-10T19:27:08.810Z,28.13
2019-01-10T19:32:29.656Z,30.40
2019-01-10T19:37:48.960Z,32.77
2019-01-10T19:43:10.005Z,58.20
2019-01-10T19:48:30.412Z,25.87
2019-01-10T19:53:52.121Z,29.37
2019-01-10T19:59:13.187Z,15.53
2019-01-10T20:04:33.837Z,9.13
2019-01-10T20:09:54.116Z,7.27
2019-01-10T20:15:13.759Z,9.07
2019-01-10T20:20:35.896Z,10.53
2019-01-10T20:25:55.370Z,23.47
2019-01-10T20:31:16.866Z,36.20
2019-01-10T20:36:37.352Z,17.70
2019-01-10T20:42:01.793Z,12.97
2019-01-10T20:47:17.741Z,12.10
2019-01-10T20:52:38.248Z,18.23
2019-01-10T20:57:57.932Z,16.20
2019-01-10T21:03:18.460Z,49.07
2019-01-10T21:08:37.958Z,26.17
2019-01-10T21:13:58.942Z,19.53
2019-01-10T21:19:19.244Z,20.40
2019-01-10T21:24:39.458Z,8.60
2019-01-10T21:30:00.474Z,18.53
2019-01-10T21:35:20.878Z,8.87
2019-01-10T21:40:40.816Z,38.17
2019-01-10T21:46:01.407Z,12.10
2019-01-10T21:51:22.016Z,8.47
2019-01-10T21:56:42.490Z,21.17
2019-01-10T22:02:02.689Z,13.83
2019-01-10T22:07:22.841Z,17.07
2019-01-10T22:12:42.348Z,11.83
2019-01-10T22:18:01.996Z,9.27
2019-01-10T22:23:22.284Z,7.07
2019-01-10T22:28:43.620Z,10.80
2019-01-10T22:34:04.172Z,9.47
2019-01-10T22:39:25.403Z,4.47
2019-01-10T22:44:44.635Z,6.43
2019-01-10T22:50:05.252Z,5.23
2019-01-10T22:55:24.704Z,5.83
2019-01-10T23:01:08.989Z,4.90
2019-01-10T23:06:31.879Z,6.30
2019-01-10T23:11:51.915Z,5.50
2019-01-10T23:17:11.002Z,4.77
2019-01-10T23:22:30.866Z,5.70
2019-01-10T23:27:51.942Z,5.30
2019-01-10T23:33:11.688Z,5.97
2019-01-10T23:38:32.169Z,5.47
2019-01-10T23:43:52.673Z,5.27
2019-01-10T23:49:13.252Z,5.17
2019-01-10T23:54:34.237Z,5.77
2019-01-10T23:59:56.706Z,4.90
